createdAt,value
2022-10-27T00:01:39.486Z,20.3
2022-10-27T00:07:15.172Z,20.3
2022-10-27T00:12:50.416Z,20.3
2022-10-27T00:18:28.967Z,20.4
2022-10-27T00:24:07.597Z,20.4
2022-10-27T00:29:42.661Z,20.4
2022-10-27T00:35:38.401Z,20.4
2022-10-27T00:41:40.208Z,20.4
2022-10-27T00:47:13.798Z,20.4
2022-10-27T00:52:51.617Z,20.4
2022-10-27T00:58:26.315Z,20.4
2022-10-27T01:04:18.471Z,20.4
2022-10-27T01:10:01.848Z,20.4
2022-10-27T01:15:36.698Z,20.4
2022-10-27T01:21:35.231Z,20.4
2022-10-27T01:27:14.440Z,20.5
2022-10-27T01:32:54.953Z,20.5
2022-10-27T01:38:38.608Z,20.5
2022-10-27T01:44:16.392Z,20.5
2022-10-27T01:49:54.043Z,20.5
2022-10-27T01:55:28.993Z,20.5
2022-10-27T02:01:26.267Z,20.4
2022-10-27T02:07:12.376Z,20.3
2022-10-27T02:12:52.130Z,20.2
2022-10-27T02:18:33.409Z,20.2
2022-10-27T02:24:36.166Z,20.2
2022-10-27T02:30:21.529Z,20.2
2022-10-27T02:36:05.019Z,20.2
2022-10-27T02:42:01.526Z,20.3
2022-10-27T02:47:34.467Z,20.3
2022-10-27T02:53:12.803Z,20.3
2022-10-27T02:58:56.499Z,20.3
2022-10-27T03:05:13.441Z,20.3
2022-10-27T03:10:49.391Z,20.3
2022-10-27T03:16:32.080Z,20.3
2022-10-27T03:22:15.177Z,20.3
2022-10-27T03:27:55.195Z,20.4
2022-10-27T03:33:34.985Z,20.4
2022-10-27T03:39:19.081Z,20.4
2022-10-27T03:44:53.945Z,20.4
2022-10-27T03:50:29.139Z,20.5
2022-10-27T03:56:06.910Z,20.5
2022-10-27T04:02:04.772Z,20.5
2022-10-27T04:07:50.855Z,20.5
2022-10-27T04:13:26.876Z,20.5
2022-10-27T04:19:06.063Z,20.6
2022-10-27T04:25:05.659Z,20.6
2022-10-27T04:30:40.687Z,20.6
2022-10-27T04:36:15.636Z,20.7
2022-10-27T04:42:26.266Z,20.8
2022-10-27T04:47:58.963Z,20.7
2022-10-27T04:53:51.893Z,20.7
2022-10-27T05:02:26.131Z,20.7
2022-10-27T05:08:12.694Z,20.7
2022-10-27T05:14:16.931Z,20.7
2022-10-27T05:19:51.927Z,20.8
2022-10-27T05:25:48.322Z,20.8
2022-10-27T05:31:39.159Z,20.8
2022-10-27T05:37:22.626Z,20.8
2022-10-27T05:43:28.322Z,20.9
2022-10-27T05:49:15.193Z,20.9
2022-10-27T05:54:57.806Z,21
2022-10-27T06:01:19.735Z,21.1
2022-10-27T06:07:03.834Z,21.2
2022-10-27T06:12:39.640Z,21.3
2022-10-27T06:18:14.654Z,21.4
2022-10-27T06:24:16.956Z,21.4
2022-10-27T06:29:59.286Z,21.5
2022-10-27T06:35:45.525Z,21.5
2022-10-27T06:41:42.393Z,21.6
2022-10-27T06:47:15.106Z,21.6
2022-10-27T06:52:55.890Z,21.7
2022-10-27T06:58:32.271Z,22.6
2022-10-27T07:04:07.274Z,23.2
2022-10-27T07:09:50.142Z,23.6
2022-10-27T07:15:29.579Z,23.8
2022-10-27T07:21:50.858Z,24
2022-10-27T07:27:27.984Z,24.3
2022-10-27T07:33:36.987Z,24
2022-10-27T07:39:39.511Z,24
2022-10-27T07:45:22.442Z,24
2022-10-27T07:50:58.755Z,24.5
2022-10-27T07:56:37.912Z,24.3
2022-10-27T08:02:14.080Z,24.2
2022-10-27T08:07:52.841Z,23.7
2022-10-27T08:13:50.025Z,23.9
2022-10-27T08:19:25.050Z,23.8
2022-10-27T08:25:16.638Z,23.6
2022-10-27T08:30:52.758Z,23.7
2022-10-27T08:36:30.601Z,23.7
2022-10-27T08:42:27.206Z,24
2022-10-27T08:47:59.877Z,24.1
2022-10-27T09:00:10.203Z,24
2022-10-27T09:05:53.277Z,23.9
2022-10-27T09:11:34.560Z,23.9
2022-10-27T09:17:12.562Z,24.8
2022-10-27T09:22:48.978Z,25.2
2022-10-27T09:28:32.770Z,24.4
2022-10-27T09:34:28.923Z,24.6
2022-10-27T09:40:15.729Z,24
2022-10-27T09:45:51.865Z,24
2022-10-27T09:51:31.789Z,24.5
2022-10-27T09:57:06.511Z,24.3
2022-10-27T10:02:47.063Z,24.5
2022-10-27T10:08:45.748Z,24.9
2022-10-27T10:14:21.150Z,24.8
2022-10-27T10:19:55.956Z,24.7
2022-10-27T10:25:38.495Z,24.6
2022-10-27T10:31:13.218Z,24.5
2022-10-27T10:36:48.375Z,24.6
2022-10-27T10:42:23.224Z,24.6
2022-10-27T10:48:01.332Z,24.5
2022-10-27T10:53:42.887Z,24.4
2022-10-27T10:59:18.211Z,24.4
2022-10-27T11:04:53.123Z,24.5
2022-10-27T11:10:31.981Z,24.2
2022-10-27T11:16:06.880Z,24.2
2022-10-27T11:21:45.445Z,24
2022-10-27T11:27:34.918Z,24.1
2022-10-27T11:33:14.876Z,24.1
2022-10-27T11:38:50.853Z,24.2
2022-10-27T11:44:25.798Z,24.4
2022-10-27T11:50:01.358Z,24.4
2022-10-27T11:55:36.421Z,24.5
2022-10-27T12:01:13.950Z,24.8
2022-10-27T12:06:50.145Z,25
2022-10-27T12:12:32.654Z,25.1
2022-10-27T12:18:10.106Z,25.2
2022-10-27T12:23:45.544Z,25.2
2022-10-27T12:29:20.203Z,25.4
2022-10-27T12:34:56.254Z,25.4
2022-10-27T12:40:32.392Z,25.5
2022-10-27T12:46:07.364Z,25.5
2022-10-27T12:52:07.137Z,25.2
2022-10-27T12:57:42.382Z,25.4
2022-10-27T13:03:22.054Z,25.5
2022-10-27T13:08:57.640Z,25.6
2022-10-27T13:14:38.637Z,25.8
2022-10-27T13:20:13.773Z,25.9
2022-10-27T13:25:49.010Z,26.1
2022-10-27T13:31:45.858Z,26.2
2022-10-27T13:37:39.736Z,26.2
2022-10-27T13:43:38.197Z,26.4
2022-10-27T13:49:11.952Z,26.3
2022-10-27T13:54:48.965Z,26.3
2022-10-27T14:00:24.586Z,26.5
2022-10-27T14:06:00.048Z,26.3
2022-10-27T14:11:46.240Z,26.1
2022-10-27T14:17:22.118Z,26
2022-10-27T14:23:08.269Z,25.9
2022-10-27T14:28:49.932Z,26.1
2022-10-27T14:34:46.151Z,25.7
2022-10-27T14:40:43.207Z,25.3
2022-10-27T14:46:16.260Z,25.1
2022-10-27T14:51:51.700Z,24.6
2022-10-27T14:57:26.679Z,24.4
2022-10-27T15:03:04.207Z,24.5
2022-10-27T15:08:42.019Z,24.4
2022-10-27T15:14:20.427Z,24.2
2022-10-27T15:20:31.666Z,24.2
2022-10-27T15:26:06.303Z,24.6
2022-10-27T15:31:51.842Z,24.6
2022-10-27T15:37:46.678Z,24.3
2022-10-27T15:43:43.271Z,24.2
2022-10-27T15:49:16.297Z,23.8
2022-10-27T15:54:56.688Z,23.8
2022-10-27T16:00:33.037Z,23.7
2022-10-27T16:06:09.613Z,23.8
2022-10-27T16:11:52.264Z,24.2
2022-10-27T16:17:38.243Z,24.4
2022-10-27T16:23:17.701Z,24
2022-10-27T16:28:54.897Z,23.8
2022-10-27T16:34:44.865Z,24
2022-10-27T16:40:44.338Z,24.1
2022-10-27T16:46:23.394Z,23.7
2022-10-27T16:52:19.380Z,24.3
2022-10-27T16:57:59.444Z,24.2
2022-10-27T17:03:35.319Z,24.5
2022-10-27T17:09:17.885Z,24.3
2022-10-27T17:15:02.939Z,24
2022-10-27T17:20:41.343Z,23.9
2022-10-27T17:26:19.857Z,24.5
2022-10-27T17:32:01.536Z,24.1
2022-10-27T17:37:36.652Z,24.2
2022-10-27T17:43:54.593Z,23.9
2022-10-27T17:49:27.556Z,23.7
2022-10-27T17:55:23.846Z,23.9
2022-10-27T18:01:27.224Z,23.8
2022-10-27T18:07:32.057Z,23.7
2022-10-27T18:13:27.532Z,24.1
2022-10-27T18:19:44.236Z,24.3
2022-10-27T18:25:31.569Z,24.3
2022-10-27T18:31:17.490Z,24.2
2022-10-27T18:36:52.243Z,24.4
2022-10-27T18:42:50.304Z,24.8
2022-10-27T18:48:34.705Z,24.7
2022-10-27T18:54:15.721Z,24.6
2022-10-27T18:59:55.143Z,24.6
2022-10-27T19:05:37.968Z,24.4
2022-10-27T19:11:13.312Z,24
2022-10-27T19:17:00.918Z,23.9
2022-10-27T19:22:39.945Z,23.7
2022-10-27T19:28:24.913Z,23.7
2022-10-27T19:39:43.894Z,23.7
2022-10-27T19:45:31.280Z,23.5
2022-10-27T19:51:31.941Z,23.3
2022-10-27T19:57:17.261Z,23
2022-10-27T20:02:57.396Z,22.8
2022-10-27T20:08:40.165Z,22.7
2022-10-27T20:14:31.782Z,22.5
2022-10-27T20:20:31.642Z,22.7
2022-10-27T20:26:30.284Z,22.7
2022-10-27T20:32:16.797Z,22.6
2022-10-27T20:38:01.667Z,22.7
2022-10-27T20:44:08.311Z,22.7
2022-10-27T20:50:19.437Z,22.8
2022-10-27T20:55:54.127Z,22.8
2022-10-27T21:01:37.082Z,22.8
2022-10-27T21:07:14.764Z,22.9
2022-10-27T21:13:23.702Z,22.8
2022-10-27T21:19:01.553Z,22.8
2022-10-27T21:24:49.033Z,22.7
2022-10-27T21:30:38.410Z,22.7
2022-10-27T21:36:14.325Z,22.6
2022-10-27T21:42:28.899Z,22.6
2022-10-27T21:48:01.563Z,22.5
2022-10-27T21:53:36.544Z,22.5
2022-10-27T21:59:24.284Z,22.4
2022-10-27T22:04:59.374Z,22.4
2022-10-27T22:10:55.343Z,22.4
2022-10-27T22:16:30.525Z,22.4
2022-10-27T22:22:09.305Z,22.3
2022-10-27T22:27:45.125Z,22.2
2022-10-27T22:33:21.130Z,22.2
2022-10-27T22:38:56.362Z,22.1
2022-10-27T22:44:49.122Z,22.1
2022-10-27T22:50:32.734Z,22
2022-10-27T22:56:07.733Z,22
2022-10-27T23:01:43.593Z,22.1
2022-10-27T23:07:21.278Z,22
2022-10-27T23:12:56.221Z,22
2022-10-27T23:19:10.217Z,22
2022-10-27T23:25:32.707Z,22
2022-10-27T23:31:18.969Z,21.9
2022-10-27T23:37:14.370Z,21.8
2022-10-27T23:43:10.966Z,21.8
2022-10-27T23:48:43.788Z,21.8
2022-10-27T23:54:24.464Z,21.8
